createdAt,value
2023-07-31T00:01:44.757Z,14.83
2023-07-31T00:04:11.692Z,14.80
2023-07-31T00:06:38.935Z,14.68
2023-07-31T00:09:05.896Z,14.80
2023-07-31T00:11:32.676Z,14.78
2023-07-31T00:13:59.282Z,14.63
2023-07-31T00:16:26.161Z,14.82
2023-07-31T00:18:54.273Z,14.84
2023-07-31T00:21:21.141Z,14.80
2023-07-31T00:23:47.838Z,14.68
2023-07-31T00:26:14.522Z,14.84
2023-07-31T00:28:41.246Z,14.64
2023-07-31T00:31:07.953Z,14.66
2023-07-31T00:33:36.319Z,14.69
2023-07-31T00:36:02.976Z,14.65
2023-07-31T00:38:31.913Z,14.55
2023-07-31T00:40:58.623Z,14.62
2023-07-31T00:43:26.307Z,14.65
2023-07-31T00:45:53.442Z,14.52
2023-07-31T00:48:20.375Z,14.57
2023-07-31T00:50:47.140Z,14.62
2023-07-31T00:53:14.736Z,14.47
2023-07-31T00:55:41.528Z,14.57
2023-07-31T00:58:08.131Z,14.52
2023-07-31T01:00:34.918Z,14.53
2023-07-31T01:03:01.751Z,14.57
2023-07-31T01:05:57.588Z,14.60
2023-07-31T01:08:40.563Z,14.35
2023-07-31T01:11:15.919Z,14.40
2023-07-31T01:13:44.577Z,14.40
2023-07-31T01:16:11.175Z,14.40
2023-07-31T01:18:38.009Z,14.36
2023-07-31T01:21:16.365Z,14.37
2023-07-31T01:24:03.147Z,14.42
2023-07-31T01:26:39.044Z,14.35
2023-07-31T01:29:24.016Z,14.23
2023-07-31T01:31:51.429Z,14.24
2023-07-31T01:34:19.221Z,14.05
2023-07-31T01:36:45.945Z,14.13
2023-07-31T01:39:12.676Z,13.98
2023-07-31T01:41:39.354Z,14.02
2023-07-31T01:44:06.632Z,14.08
2023-07-31T01:46:33.546Z,13.88
2023-07-31T01:49:00.404Z,13.93
2023-07-31T01:51:27.073Z,13.70
2023-07-31T01:53:53.684Z,13.88
2023-07-31T01:56:20.352Z,13.89
2023-07-31T01:58:47.188Z,13.80
2023-07-31T02:01:13.879Z,13.69
2023-07-31T02:03:40.722Z,13.61
2023-07-31T02:06:07.378Z,13.56
2023-07-31T02:08:34.296Z,13.59
2023-07-31T02:11:01.265Z,13.48
2023-07-31T02:13:27.969Z,13.41
2023-07-31T02:15:54.996Z,13.37
2023-07-31T02:18:22.076Z,13.38
2023-07-31T02:20:52.560Z,13.24
2023-07-31T02:23:22.367Z,13.23
2023-07-31T02:25:49.069Z,13.24
2023-07-31T02:28:15.904Z,13.05
2023-07-31T02:30:46.893Z,13.06
2023-07-31T02:33:13.539Z,13.06
2023-07-31T02:35:40.190Z,13.13
2023-07-31T02:38:06.903Z,13.15
2023-07-31T02:40:33.600Z,13.16
2023-07-31T02:43:00.301Z,13.05
2023-07-31T02:45:27.280Z,12.99
2023-07-31T02:47:54.045Z,13.09
2023-07-31T02:50:20.964Z,12.96
2023-07-31T02:52:47.605Z,13.01
2023-07-31T02:55:14.355Z,12.96
2023-07-31T02:57:41.280Z,12.96
2023-07-31T03:00:08.528Z,12.90
2023-07-31T03:02:35.298Z,12.89
2023-07-31T03:05:02.040Z,12.94
2023-07-31T03:07:28.987Z,12.89
2023-07-31T03:09:55.642Z,12.86
2023-07-31T03:12:22.272Z,12.83
2023-07-31T03:14:50.437Z,12.83
2023-07-31T03:17:17.483Z,12.80
2023-07-31T03:19:44.102Z,12.77
2023-07-31T03:22:10.794Z,12.74
2023-07-31T03:24:37.563Z,12.79
2023-07-31T03:27:04.473Z,12.71
2023-07-31T03:29:31.151Z,12.71
2023-07-31T03:31:57.812Z,12.82
2023-07-31T03:34:24.816Z,12.83
2023-07-31T03:36:51.583Z,12.70
2023-07-31T03:39:18.299Z,12.71
2023-07-31T03:41:44.937Z,12.64
2023-07-31T03:44:11.586Z,12.58
2023-07-31T03:46:38.685Z,12.60
2023-07-31T03:49:05.640Z,12.57
2023-07-31T03:51:32.367Z,12.58
2023-07-31T03:53:58.972Z,12.57
2023-07-31T03:56:25.624Z,12.53
2023-07-31T03:58:52.326Z,12.57
2023-07-31T04:01:20.927Z,12.43
2023-07-31T04:03:47.705Z,12.45
2023-07-31T04:06:14.359Z,12.40
2023-07-31T04:08:41.025Z,12.46
2023-07-31T04:11:07.616Z,12.46
2023-07-31T04:13:35.033Z,12.53
2023-07-31T04:16:01.913Z,12.53
2023-07-31T04:18:28.593Z,12.56
2023-07-31T04:20:55.978Z,12.58
2023-07-31T04:23:22.613Z,12.54
2023-07-31T04:25:49.306Z,12.67
2023-07-31T04:28:16.221Z,12.69
2023-07-31T04:30:42.915Z,12.74
2023-07-31T04:33:09.815Z,12.75
2023-07-31T04:35:36.639Z,12.80
2023-07-31T04:38:03.525Z,12.86
2023-07-31T04:40:30.385Z,12.76
2023-07-31T04:42:57.005Z,12.99
2023-07-31T04:45:23.666Z,13.07
2023-07-31T04:47:55.580Z,13.15
2023-07-31T04:50:22.332Z,13.34
2023-07-31T04:52:48.991Z,13.45
2023-07-31T04:55:15.680Z,13.61
2023-07-31T04:57:42.289Z,13.73
2023-07-31T05:00:09.398Z,13.88
2023-07-31T05:02:39.388Z,14.01
2023-07-31T05:05:06.224Z,14.24
2023-07-31T05:07:32.847Z,13.98
2023-07-31T05:09:59.524Z,14.30
2023-07-31T05:12:26.363Z,14.27
2023-07-31T05:14:52.993Z,14.45
2023-07-31T05:17:19.720Z,14.73
2023-07-31T05:19:46.326Z,14.83
2023-07-31T05:22:13.139Z,15.12
2023-07-31T05:24:39.766Z,15.23
2023-07-31T05:27:06.860Z,15.48
2023-07-31T05:29:33.543Z,15.38
2023-07-31T05:32:03.308Z,15.94
2023-07-31T05:34:29.990Z,16.02
2023-07-31T05:36:56.679Z,15.75
2023-07-31T05:39:23.385Z,15.86
2023-07-31T05:41:50.118Z,15.88
2023-07-31T05:44:16.793Z,16.24
2023-07-31T05:46:43.716Z,16.38
2023-07-31T05:49:10.612Z,16.63
2023-07-31T05:51:37.252Z,16.95
2023-07-31T05:54:04.029Z,16.97
2023-07-31T05:56:30.923Z,17.26
2023-07-31T05:58:58.511Z,16.92
2023-07-31T06:01:25.240Z,17.34
2023-07-31T06:03:51.981Z,17.02
2023-07-31T06:06:18.743Z,16.88
2023-07-31T06:08:45.581Z,17.13
2023-07-31T06:11:12.601Z,16.92
2023-07-31T06:13:39.935Z,17.16
2023-07-31T06:16:07.837Z,17.01
2023-07-31T06:18:34.530Z,16.89
2023-07-31T06:21:01.355Z,17.13
2023-07-31T06:23:28.076Z,17.14
2023-07-31T06:25:54.797Z,17.07
2023-07-31T06:28:21.511Z,16.83
2023-07-31T06:30:48.611Z,17.12
2023-07-31T06:33:15.504Z,17.42
2023-07-31T06:35:42.264Z,17.04
2023-07-31T06:38:08.972Z,17.08
2023-07-31T06:40:35.615Z,17.31
2023-07-31T06:43:08.982Z,17.08
2023-07-31T06:45:36.620Z,17.27
2023-07-31T06:48:03.881Z,17.58
2023-07-31T06:50:31.528Z,17.67
2023-07-31T06:52:58.705Z,17.91
2023-07-31T06:55:26.004Z,17.94
2023-07-31T06:57:54.698Z,17.31
2023-07-31T07:00:22.863Z,17.71
2023-07-31T07:02:50.290Z,17.77
2023-07-31T07:05:20.305Z,17.55
2023-07-31T07:07:47.052Z,17.31
2023-07-31T07:10:13.731Z,17.64
2023-07-31T07:12:40.456Z,17.40
2023-07-31T07:15:07.608Z,17.85
2023-07-31T07:17:34.678Z,17.99
2023-07-31T07:20:02.076Z,18.07
2023-07-31T07:22:29.379Z,18.08
2023-07-31T07:24:57.528Z,17.72
2023-07-31T07:27:24.161Z,18.00
2023-07-31T07:29:54.671Z,18.30
2023-07-31T07:32:22.366Z,18.11
2023-07-31T07:34:50.055Z,18.59
2023-07-31T07:37:17.359Z,18.72
2023-07-31T07:39:44.331Z,18.82
2023-07-31T07:42:11.573Z,19.12
2023-07-31T07:44:38.633Z,19.19
2023-07-31T07:47:07.317Z,19.51
2023-07-31T07:49:35.539Z,19.82
2023-07-31T07:52:03.439Z,20.04
2023-07-31T07:54:30.100Z,20.36
2023-07-31T07:56:56.735Z,20.25
2023-07-31T07:59:23.498Z,20.28
2023-07-31T08:01:50.170Z,20.69
2023-07-31T08:04:16.806Z,20.72
2023-07-31T08:06:43.753Z,20.77
2023-07-31T08:09:10.538Z,20.61
2023-07-31T08:11:37.211Z,20.92
2023-07-31T08:14:04.020Z,20.45
2023-07-31T08:16:30.841Z,20.23
2023-07-31T08:18:57.630Z,19.81
2023-07-31T08:21:24.708Z,20.21
2023-07-31T08:23:51.527Z,20.50
2023-07-31T08:26:22.227Z,20.48
2023-07-31T08:28:49.034Z,20.10
2023-07-31T08:31:15.744Z,21.00
2023-07-31T08:33:42.541Z,20.73
2023-07-31T08:36:09.342Z,20.90
2023-07-31T08:38:36.013Z,21.04
2023-07-31T08:41:04.904Z,20.70
2023-07-31T08:43:32.092Z,20.69
2023-07-31T08:45:59.317Z,20.86
2023-07-31T08:48:26.914Z,20.74
2023-07-31T08:50:54.456Z,20.34
2023-07-31T08:53:21.150Z,20.06
2023-07-31T08:55:49.901Z,20.05
2023-07-31T08:58:16.871Z,19.79
2023-07-31T09:00:45.581Z,19.59
2023-07-31T09:03:17.399Z,19.94
2023-07-31T09:05:46.491Z,19.90
2023-07-31T09:08:14.704Z,20.36
2023-07-31T09:10:43.364Z,20.69
2023-07-31T09:13:13.178Z,20.23
2023-07-31T09:15:41.287Z,20.44
2023-07-31T09:18:09.170Z,20.51
2023-07-31T09:20:36.657Z,20.41
2023-07-31T09:23:12.190Z,20.29
2023-07-31T09:25:40.075Z,20.53
2023-07-31T09:28:12.108Z,20.41
2023-07-31T09:30:50.710Z,21.10
2023-07-31T09:33:20.605Z,21.16
2023-07-31T09:35:49.508Z,20.85
2023-07-31T09:38:17.625Z,21.08
2023-07-31T09:40:49.328Z,21.12
2023-07-31T09:43:22.251Z,21.55
2023-07-31T09:45:49.452Z,21.89
2023-07-31T09:48:19.859Z,21.37
2023-07-31T09:50:50.393Z,21.18
2023-07-31T09:53:18.340Z,21.28
2023-07-31T09:55:45.319Z,21.99
2023-07-31T09:58:13.995Z,21.81
2023-07-31T10:00:41.118Z,21.72
2023-07-31T10:03:12.574Z,22.00
2023-07-31T10:05:41.905Z,21.41
2023-07-31T10:08:11.044Z,21.74
2023-07-31T10:10:46.936Z,22.28
2023-07-31T10:13:15.149Z,22.57
2023-07-31T10:15:43.183Z,22.48
2023-07-31T10:18:11.284Z,22.18
2023-07-31T10:20:38.283Z,22.35
2023-07-31T10:23:05.124Z,22.70
2023-07-31T10:25:33.869Z,22.71
2023-07-31T10:28:00.934Z,22.65
2023-07-31T10:30:31.094Z,23.10
2023-07-31T10:32:59.045Z,22.48
2023-07-31T10:35:26.298Z,22.60
2023-07-31T10:37:54.038Z,22.22
2023-07-31T10:40:25.675Z,23.00
2023-07-31T10:43:02.468Z,22.43
2023-07-31T10:45:37.633Z,23.17
2023-07-31T10:48:06.640Z,23.18
2023-07-31T10:50:38.803Z,22.55
2023-07-31T10:53:06.113Z,23.33
2023-07-31T10:55:35.409Z,23.19
2023-07-31T10:58:10.720Z,22.74
2023-07-31T11:00:44.973Z,23.09
2023-07-31T11:03:13.548Z,22.75
2023-07-31T11:06:04.838Z,23.17
2023-07-31T11:08:33.774Z,22.61
2023-07-31T11:11:03.456Z,22.96
2023-07-31T11:13:34.866Z,22.62
2023-07-31T11:16:02.136Z,22.61
2023-07-31T11:18:28.759Z,22.45
2023-07-31T11:20:55.776Z,22.47
2023-07-31T11:23:24.408Z,23.04
2023-07-31T11:25:51.993Z,23.83
2023-07-31T11:28:20.108Z,23.27
2023-07-31T11:30:48.079Z,23.84
2023-07-31T11:33:15.685Z,23.53
2023-07-31T11:35:46.884Z,23.99
2023-07-31T11:38:24.085Z,22.80
2023-07-31T11:40:51.164Z,23.41
2023-07-31T11:43:19.327Z,24.16
2023-07-31T11:45:48.991Z,23.47
2023-07-31T11:48:24.073Z,23.84
2023-07-31T11:50:52.629Z,24.22
2023-07-31T11:53:24.941Z,23.57
2023-07-31T11:55:52.352Z,24.16
2023-07-31T11:58:19.886Z,24.58
2023-07-31T12:00:47.611Z,24.48
2023-07-31T12:03:14.636Z,23.93
2023-07-31T12:05:41.323Z,23.43
2023-07-31T12:08:15.423Z,23.89
2023-07-31T12:10:42.250Z,24.07
2023-07-31T12:13:26.117Z,23.81
2023-07-31T12:16:01.329Z,23.56
2023-07-31T12:18:29.466Z,23.95
2023-07-31T12:21:02.030Z,23.80
2023-07-31T12:23:30.723Z,23.33
2023-07-31T12:26:26.349Z,23.59
2023-07-31T12:28:55.933Z,24.50
2023-07-31T12:31:23.920Z,24.81
2023-07-31T12:33:52.094Z,24.21
2023-07-31T12:36:22.521Z,24.91
2023-07-31T12:38:50.553Z,25.52
2023-07-31T12:41:17.485Z,24.36
2023-07-31T12:43:46.366Z,24.26
2023-07-31T12:46:14.142Z,25.16
2023-07-31T12:48:41.955Z,24.52
2023-07-31T12:51:09.017Z,24.85
2023-07-31T12:53:36.206Z,24.02
2023-07-31T12:56:03.346Z,23.64
2023-07-31T12:58:30.090Z,23.58
2023-07-31T13:00:56.701Z,23.73
2023-07-31T13:03:23.522Z,24.10
2023-07-31T13:05:50.312Z,23.85
2023-07-31T13:08:17.256Z,24.01
2023-07-31T13:10:44.172Z,23.97
2023-07-31T13:13:11.522Z,24.74
2023-07-31T13:15:38.498Z,23.87
2023-07-31T13:18:05.736Z,23.45
2023-07-31T13:20:32.452Z,24.07
2023-07-31T13:22:59.125Z,24.13
2023-07-31T13:25:26.180Z,24.64
2023-07-31T13:27:52.760Z,25.03
2023-07-31T13:30:19.439Z,24.26
2023-07-31T13:32:46.505Z,24.81
2023-07-31T13:35:13.313Z,24.13
2023-07-31T13:37:40.122Z,24.55
2023-07-31T13:40:07.722Z,24.37
2023-07-31T13:42:34.493Z,23.72
2023-07-31T13:45:03.086Z,24.14
2023-07-31T13:47:32.426Z,24.51
2023-07-31T13:49:59.145Z,24.60
2023-07-31T13:52:26.092Z,24.19
2023-07-31T13:54:52.753Z,24.00
2023-07-31T13:57:19.404Z,24.38
2023-07-31T13:59:46.038Z,24.52
2023-07-31T14:02:12.779Z,24.77
2023-07-31T14:04:39.383Z,24.21
2023-07-31T14:07:06.238Z,24.15
2023-07-31T14:09:33.195Z,24.57
2023-07-31T14:11:59.837Z,24.24
2023-07-31T14:14:26.513Z,24.16
2023-07-31T14:16:53.479Z,24.32
2023-07-31T14:19:20.634Z,24.15
2023-07-31T14:21:57.113Z,23.89
2023-07-31T14:24:32.181Z,23.77
2023-07-31T14:26:59.038Z,23.60
2023-07-31T14:29:25.684Z,23.90
2023-07-31T14:31:52.490Z,23.88
2023-07-31T14:34:19.197Z,23.90
2023-07-31T14:36:47.645Z,23.60
2023-07-31T14:39:14.256Z,23.66
2023-07-31T14:41:40.965Z,23.55
2023-07-31T14:44:07.611Z,23.43
2023-07-31T14:46:34.268Z,23.64
2023-07-31T14:49:01.016Z,23.44
2023-07-31T14:51:27.701Z,23.60
2023-07-31T14:53:54.280Z,23.45
2023-07-31T14:56:21.010Z,23.34
2023-07-31T14:58:47.906Z,23.51
2023-07-31T15:01:14.518Z,23.41
2023-07-31T15:03:41.263Z,23.32
2023-07-31T15:06:09.141Z,23.55
2023-07-31T15:08:37.646Z,23.56
2023-07-31T15:11:04.349Z,23.22
2023-07-31T15:13:31.087Z,23.40
2023-07-31T15:15:59.340Z,23.54
2023-07-31T15:18:26.145Z,23.38
2023-07-31T15:20:53.260Z,23.50
2023-07-31T15:23:19.935Z,23.60
2023-07-31T15:25:46.603Z,23.33
2023-07-31T15:28:13.757Z,23.33
2023-07-31T15:30:40.654Z,23.31
2023-07-31T15:33:07.441Z,23.41
2023-07-31T15:35:34.138Z,23.58
2023-07-31T15:38:01.034Z,23.73
2023-07-31T15:40:28.078Z,23.58
2023-07-31T15:42:54.756Z,23.48
2023-07-31T15:45:21.717Z,23.44
2023-07-31T15:47:49.533Z,23.23
2023-07-31T15:50:19.343Z,23.03
2023-07-31T15:52:47.517Z,23.22
2023-07-31T15:55:14.213Z,22.89
2023-07-31T15:57:40.883Z,23.09
2023-07-31T16:00:09.671Z,22.97
2023-07-31T16:02:36.820Z,22.97
2023-07-31T16:05:06.792Z,22.85
2023-07-31T16:07:33.381Z,22.90
2023-07-31T16:10:00.199Z,22.72
2023-07-31T16:12:27.757Z,22.84
2023-07-31T16:14:54.421Z,22.95
2023-07-31T16:17:21.056Z,22.78
2023-07-31T16:19:47.819Z,22.82
2023-07-31T16:22:14.467Z,23.00
2023-07-31T16:24:41.295Z,23.01
2023-07-31T16:27:08.250Z,22.95
2023-07-31T16:29:34.793Z,22.99
2023-07-31T16:32:01.502Z,23.04
2023-07-31T16:34:28.278Z,23.08
2023-07-31T16:36:57.878Z,23.19
2023-07-31T16:39:24.980Z,22.94
2023-07-31T16:41:52.071Z,22.88
2023-07-31T16:44:18.874Z,23.03
2023-07-31T16:46:45.651Z,22.90
2023-07-31T16:49:12.492Z,22.93
2023-07-31T16:51:39.583Z,23.12
2023-07-31T16:54:07.192Z,23.08
2023-07-31T16:56:45.120Z,23.12
2023-07-31T16:59:23.736Z,22.97
2023-07-31T17:01:50.567Z,23.15
2023-07-31T17:04:17.518Z,23.08
2023-07-31T17:06:44.470Z,23.13
2023-07-31T17:09:11.611Z,22.98
2023-07-31T17:11:39.456Z,23.15
2023-07-31T17:14:08.155Z,23.12
2023-07-31T17:16:36.896Z,23.02
2023-07-31T17:19:04.437Z,22.84
2023-07-31T17:21:31.150Z,22.99
2023-07-31T17:23:57.808Z,23.02
2023-07-31T17:26:24.654Z,22.74
2023-07-31T17:28:52.056Z,22.78
2023-07-31T17:31:18.748Z,22.60
2023-07-31T17:33:45.480Z,22.61
2023-07-31T17:36:13.481Z,22.51
2023-07-31T17:38:41.269Z,22.42
2023-07-31T17:41:09.657Z,22.54
2023-07-31T17:43:36.587Z,22.48
2023-07-31T17:46:05.552Z,22.59
2023-07-31T17:48:33.323Z,22.32
2023-07-31T17:50:59.985Z,22.45
2023-07-31T17:53:26.672Z,22.38
2023-07-31T17:55:53.921Z,22.15
2023-07-31T17:58:20.670Z,22.22
2023-07-31T18:00:47.317Z,22.21
2023-07-31T18:03:14.243Z,22.20
2023-07-31T18:05:41.140Z,21.99
2023-07-31T18:08:08.013Z,22.14
2023-07-31T18:10:35.321Z,22.06
2023-07-31T18:13:02.360Z,22.03
2023-07-31T18:15:29.281Z,21.90
2023-07-31T18:17:56.261Z,21.95
2023-07-31T18:20:22.992Z,21.84
2023-07-31T18:22:49.748Z,21.66
2023-07-31T18:25:16.649Z,21.56
2023-07-31T18:27:43.517Z,21.59
2023-07-31T18:30:10.581Z,21.51
2023-07-31T18:32:37.282Z,21.55
2023-07-31T18:35:04.251Z,21.64
2023-07-31T18:37:30.902Z,21.57
2023-07-31T18:39:57.493Z,21.52
2023-07-31T18:42:24.096Z,21.56
2023-07-31T18:44:50.783Z,21.58
2023-07-31T18:47:17.697Z,21.47
2023-07-31T18:49:44.418Z,21.50
2023-07-31T18:52:11.044Z,21.43
2023-07-31T18:54:37.723Z,21.25
2023-07-31T18:57:04.658Z,21.42
2023-07-31T18:59:31.436Z,21.35
2023-07-31T19:01:58.068Z,21.30
2023-07-31T19:04:24.985Z,21.23
2023-07-31T19:06:51.900Z,21.27
2023-07-31T19:09:30.192Z,21.29
2023-07-31T19:11:56.838Z,21.28
2023-07-31T19:14:24.696Z,21.33
2023-07-31T19:16:52.095Z,21.35
2023-07-31T19:19:18.907Z,21.23
2023-07-31T19:21:45.615Z,21.24
2023-07-31T19:24:12.422Z,21.24
2023-07-31T19:26:39.664Z,21.23
2023-07-31T19:29:06.683Z,21.21
2023-07-31T19:31:33.727Z,21.18
2023-07-31T19:34:00.677Z,21.17
2023-07-31T19:36:27.448Z,21.17
2023-07-31T19:38:54.028Z,21.17
2023-07-31T19:41:20.820Z,21.16
2023-07-31T19:43:47.606Z,21.20
2023-07-31T19:46:20.383Z,21.10
2023-07-31T19:48:47.081Z,21.15
2023-07-31T19:51:13.670Z,21.14
2023-07-31T19:53:40.320Z,21.01
2023-07-31T19:56:07.348Z,20.92
2023-07-31T19:58:34.890Z,20.82
2023-07-31T20:01:01.493Z,20.87
2023-07-31T20:03:28.090Z,20.88
2023-07-31T20:05:55.039Z,20.90
2023-07-31T20:08:21.651Z,20.90
2023-07-31T20:10:48.248Z,20.85
2023-07-31T20:13:15.115Z,20.70
2023-07-31T20:15:42.066Z,20.52
2023-07-31T20:18:08.905Z,20.54
2023-07-31T20:20:35.547Z,20.57
2023-07-31T20:23:04.892Z,20.47
2023-07-31T20:25:36.148Z,20.59
2023-07-31T20:28:03.794Z,20.60
2023-07-31T20:30:30.524Z,20.63
2023-07-31T20:32:58.044Z,20.59
2023-07-31T20:35:25.308Z,20.61
2023-07-31T20:37:52.051Z,20.64
2023-07-31T20:40:18.802Z,20.36
2023-07-31T20:42:56.606Z,20.38
2023-07-31T20:45:23.257Z,20.26
2023-07-31T20:47:49.953Z,20.18
2023-07-31T20:50:16.900Z,20.15
2023-07-31T20:52:43.500Z,20.05
2023-07-31T20:55:10.094Z,20.09
2023-07-31T20:57:36.714Z,20.00
2023-07-31T21:00:03.593Z,19.93
2023-07-31T21:02:30.393Z,19.86
2023-07-31T21:04:57.260Z,20.14
2023-07-31T21:07:23.867Z,19.89
2023-07-31T21:09:50.692Z,19.82
2023-07-31T21:12:17.337Z,19.92
2023-07-31T21:14:44.143Z,19.79
2023-07-31T21:17:10.783Z,19.89
2023-07-31T21:19:37.764Z,19.77
2023-07-31T21:22:04.599Z,19.68
2023-07-31T21:24:31.228Z,19.58
2023-07-31T21:26:57.824Z,19.53
2023-07-31T21:29:24.393Z,19.46
2023-07-31T21:31:51.342Z,19.39
2023-07-31T21:34:17.990Z,19.36
2023-07-31T21:36:44.558Z,19.42
2023-07-31T21:39:12.102Z,19.41
2023-07-31T21:41:39.158Z,19.41
2023-07-31T21:44:05.987Z,19.36
2023-07-31T21:46:32.666Z,19.41
2023-07-31T21:48:59.280Z,19.31
2023-07-31T21:51:25.927Z,19.21
2023-07-31T21:53:52.612Z,19.10
2023-07-31T21:56:19.242Z,18.79
2023-07-31T21:58:45.830Z,18.77
2023-07-31T22:01:12.610Z,18.93
2023-07-31T22:03:40.858Z,18.76
2023-07-31T22:06:07.438Z,18.81
2023-07-31T22:08:34.122Z,18.83
2023-07-31T22:11:00.954Z,18.97
2023-07-31T22:13:27.609Z,18.78
2023-07-31T22:15:54.253Z,18.76
2023-07-31T22:18:20.906Z,18.82
2023-07-31T22:20:51.605Z,18.58
2023-07-31T22:23:18.319Z,18.65
2023-07-31T22:25:44.954Z,18.58
2023-07-31T22:28:20.703Z,18.74
2023-07-31T22:30:48.300Z,18.65
2023-07-31T22:33:14.965Z,18.56
2023-07-31T22:35:41.841Z,18.35
2023-07-31T22:38:08.422Z,18.38
2023-07-31T22:40:35.031Z,18.55
2023-07-31T22:43:01.752Z,18.52
2023-07-31T22:45:28.717Z,18.57
2023-07-31T22:47:55.460Z,18.33
2023-07-31T22:50:22.176Z,18.27
2023-07-31T22:52:49.380Z,18.49
2023-07-31T22:55:16.303Z,18.38
2023-07-31T22:57:43.176Z,18.30
2023-07-31T23:00:10.363Z,18.20
2023-07-31T23:02:37.047Z,18.17
2023-07-31T23:05:04.179Z,18.03
2023-07-31T23:07:31.829Z,18.16
2023-07-31T23:09:58.754Z,18.27
2023-07-31T23:12:25.465Z,18.15
2023-07-31T23:14:53.448Z,18.11
2023-07-31T23:17:20.235Z,17.99
2023-07-31T23:19:47.093Z,17.99
2023-07-31T23:22:13.839Z,17.92
2023-07-31T23:24:40.494Z,17.78
2023-07-31T23:27:07.237Z,17.92
2023-07-31T23:29:35.644Z,17.85
2023-07-31T23:32:02.327Z,17.82
2023-07-31T23:34:29.036Z,17.62
2023-07-31T23:36:55.913Z,17.64
2023-07-31T23:39:22.535Z,17.70
2023-07-31T23:41:49.136Z,17.89
2023-07-31T23:44:15.814Z,17.87
2023-07-31T23:46:47.479Z,17.80
2023-07-31T23:49:15.718Z,17.84
2023-07-31T23:51:43.309Z,17.95
2023-07-31T23:54:11.390Z,18.02
2023-07-31T23:56:39.789Z,17.83
2023-07-31T23:59:07.292Z,17.93
